createdAt,value
2019-04-30T00:01:28.827Z,66.90
2019-04-30T00:04:06.253Z,66.80
2019-04-30T00:06:39.307Z,66.70
2019-04-30T00:09:15.136Z,66.60
2019-04-30T00:11:46.146Z,66.30
2019-04-30T00:14:21.182Z,66.70
2019-04-30T00:16:55.141Z,66.00
2019-04-30T00:19:26.775Z,65.60
2019-04-30T00:22:00.499Z,65.50
2019-04-30T00:24:31.371Z,65.40
2019-04-30T00:27:05.007Z,65.00
2019-04-30T00:29:37.177Z,65.00
2019-04-30T00:32:09.947Z,64.80
2019-04-30T00:34:41.597Z,64.40
2019-04-30T00:37:18.666Z,64.00
2019-04-30T00:39:51.027Z,63.80
2019-04-30T00:42:24.507Z,63.50
2019-04-30T00:44:59.533Z,63.30
2019-04-30T00:47:31.783Z,63.90
2019-04-30T00:50:04.945Z,62.60
2019-04-30T00:52:37.485Z,62.20
2019-04-30T00:55:11.428Z,62.80
2019-04-30T00:57:43.940Z,61.30
2019-04-30T01:00:19.017Z,60.90
2019-04-30T01:02:52.611Z,60.90
2019-04-30T01:05:27.059Z,60.50
2019-04-30T01:08:01.763Z,60.10
2019-04-30T01:10:37.343Z,59.80
2019-04-30T01:13:11.872Z,59.70
2019-04-30T01:15:48.381Z,59.70
2019-04-30T01:18:17.163Z,59.60
2019-04-30T01:20:51.672Z,59.40
2019-04-30T01:23:23.273Z,59.50
2019-04-30T01:25:55.970Z,59.40
2019-04-30T01:28:30.189Z,59.40
2019-04-30T01:31:03.512Z,58.90
2019-04-30T01:33:36.052Z,58.90
2019-04-30T01:36:13.471Z,58.80
2019-04-30T01:38:51.024Z,58.70
2019-04-30T01:41:20.306Z,58.50
2019-04-30T01:43:53.203Z,58.40
2019-04-30T01:46:29.079Z,58.10
2019-04-30T01:49:01.337Z,58.00
2019-04-30T01:51:33.843Z,57.90
2019-04-30T01:54:13.620Z,57.50
2019-04-30T01:56:44.318Z,57.20
2019-04-30T01:59:24.423Z,58.00
2019-04-30T02:01:58.688Z,57.40
2019-04-30T02:04:31.494Z,56.50
2019-04-30T02:07:04.661Z,56.60
2019-04-30T02:09:39.384Z,56.50
2019-04-30T02:12:11.961Z,56.50
2019-04-30T02:14:44.463Z,56.00
2019-04-30T02:17:19.152Z,55.50
2019-04-30T02:19:56.530Z,55.00
2019-04-30T02:22:25.139Z,54.70
2019-04-30T02:24:59.364Z,54.80
2019-04-30T02:27:32.012Z,55.10
2019-04-30T02:30:03.524Z,54.50
2019-04-30T02:32:39.374Z,53.70
2019-04-30T02:35:19.434Z,53.70
2019-04-30T02:37:55.040Z,53.30
2019-04-30T02:40:29.997Z,53.30
2019-04-30T02:43:02.857Z,53.60
2019-04-30T02:45:36.348Z,51.60
2019-04-30T02:48:11.434Z,52.30
2019-04-30T02:50:42.409Z,52.30
2019-04-30T02:53:33.580Z,51.10
2019-04-30T02:56:09.910Z,51.30
2019-04-30T02:58:42.068Z,50.70
2019-04-30T03:01:14.488Z,50.40
2019-04-30T03:06:35.274Z,49.40
2019-04-30T03:09:10.368Z,49.10
2019-04-30T03:11:43.297Z,47.80
2019-04-30T03:14:16.185Z,48.00
2019-04-30T03:16:53.109Z,47.00
2019-04-30T03:19:29.500Z,46.30
2019-04-30T03:22:05.079Z,46.00
2019-04-30T03:24:42.325Z,46.70
2019-04-30T03:27:11.143Z,46.10
2019-04-30T03:29:42.733Z,46.00
2019-04-30T03:32:15.151Z,45.90
2019-04-30T03:34:51.590Z,44.80
2019-04-30T03:37:22.752Z,45.40
2019-04-30T03:39:56.731Z,44.60
2019-04-30T03:42:29.544Z,44.70
2019-04-30T03:45:02.336Z,44.20
2019-04-30T03:47:33.879Z,43.10
2019-04-30T03:50:09.274Z,42.90
2019-04-30T03:52:41.872Z,43.20
2019-04-30T03:55:14.346Z,42.50
2019-04-30T03:57:51.684Z,40.90
2019-04-30T04:00:24.407Z,42.10
2019-04-30T04:02:59.771Z,42.70
2019-04-30T04:05:33.030Z,41.20
2019-04-30T04:08:12.914Z,40.20
2019-04-30T04:10:50.209Z,40.20
2019-04-30T04:13:20.398Z,39.40
2019-04-30T04:15:53.045Z,39.60
2019-04-30T04:18:25.745Z,39.30
2019-04-30T04:21:08.756Z,39.10
2019-04-30T04:23:34.492Z,41.30
2019-04-30T04:26:13.661Z,39.50
2019-04-30T04:28:46.477Z,40.00
2019-04-30T04:31:25.499Z,38.40
2019-04-30T04:34:00.015Z,37.10
2019-04-30T04:36:33.868Z,38.00
2019-04-30T04:39:09.786Z,36.60
2019-04-30T04:41:44.209Z,36.10
2019-04-30T04:44:19.675Z,35.90
2019-04-30T04:46:51.138Z,36.80
2019-04-30T04:49:23.942Z,36.80
2019-04-30T04:51:59.055Z,34.50
2019-04-30T04:54:30.850Z,35.90
2019-04-30T04:57:16.896Z,35.80
2019-04-30T04:59:42.372Z,37.00
2019-04-30T05:02:33.536Z,37.60
2019-04-30T05:05:06.455Z,36.20
2019-04-30T05:07:40.646Z,36.70
2019-04-30T05:10:15.115Z,35.80
2019-04-30T05:12:50.647Z,35.10
2019-04-30T05:15:23.816Z,34.30
2019-04-30T05:17:55.458Z,35.50
2019-04-30T05:20:29.051Z,32.60
2019-04-30T05:23:01.182Z,32.60
2019-04-30T05:25:33.932Z,33.40
2019-04-30T05:28:08.594Z,34.20
2019-04-30T05:30:40.563Z,33.60
2019-04-30T05:33:13.136Z,34.20
2019-04-30T05:35:45.617Z,33.30
2019-04-30T05:38:19.050Z,34.60
2019-04-30T05:40:51.786Z,33.30
2019-04-30T05:43:28.840Z,34.20
2019-04-30T05:46:01.590Z,33.90
2019-04-30T05:51:22.725Z,34.20
2019-04-30T05:53:55.491Z,33.40
2019-04-30T05:56:30.165Z,31.20
2019-04-30T05:59:04.670Z,32.30
2019-04-30T06:01:39.356Z,31.40
2019-04-30T06:04:11.223Z,32.80
2019-04-30T06:06:44.071Z,32.60
2019-04-30T10:03:53.683Z,31.60
2019-04-30T10:06:37.908Z,31.90
2019-04-30T10:09:02.346Z,32.40
2019-04-30T10:11:38.205Z,32.40
2019-04-30T10:14:10.891Z,32.30
2019-04-30T10:16:45.217Z,32.20
2019-04-30T10:19:19.520Z,32.40
2019-04-30T10:21:52.312Z,32.80
2019-04-30T10:24:26.854Z,32.50
2019-04-30T10:26:59.648Z,33.40
2019-04-30T10:29:32.311Z,33.50
2019-04-30T10:32:04.022Z,33.70
2019-04-30T10:34:36.557Z,34.10
2019-04-30T10:37:09.106Z,34.10
2019-04-30T10:39:41.150Z,34.50
2019-04-30T10:42:19.794Z,34.40
2019-04-30T10:44:52.067Z,34.00
2019-04-30T10:47:25.844Z,34.00
2019-04-30T10:49:58.555Z,34.50
2019-04-30T10:52:33.430Z,34.50
2019-04-30T10:55:05.797Z,34.80
2019-04-30T10:57:39.677Z,35.00
2019-04-30T11:00:13.184Z,35.10
2019-04-30T11:02:45.902Z,35.20
2019-04-30T11:05:20.984Z,35.40
2019-04-30T11:07:52.895Z,35.30
2019-04-30T11:10:25.884Z,35.20
2019-04-30T11:12:58.856Z,35.50
2019-04-30T11:18:19.888Z,35.80
2019-04-30T11:20:52.697Z,35.40
2019-04-30T11:23:25.610Z,36.00
2019-04-30T11:26:00.428Z,36.10
2019-04-30T11:28:32.476Z,36.60
2019-04-30T11:31:23.222Z,37.00
2019-04-30T11:33:58.702Z,37.90
2019-04-30T11:36:31.693Z,38.60
2019-04-30T11:39:04.292Z,38.60
2019-04-30T11:41:35.935Z,39.00
2019-04-30T11:44:09.281Z,39.80
2019-04-30T11:47:00.125Z,39.90
2019-04-30T11:49:32.801Z,40.00
2019-04-30T11:52:05.377Z,40.50
2019-04-30T11:54:48.673Z,40.60
2019-04-30T11:57:13.273Z,41.00
2019-04-30T11:59:45.844Z,41.00
2019-04-30T12:02:21.675Z,41.00
2019-04-30T12:04:54.386Z,41.20
2019-04-30T12:07:29.095Z,42.20
2019-04-30T12:10:19.459Z,41.80
2019-04-30T12:12:52.414Z,42.80
2019-04-30T12:15:29.088Z,42.00
2019-04-30T12:18:04.613Z,42.10
2019-04-30T12:20:37.209Z,42.10
2019-04-30T12:23:11.729Z,42.10
2019-04-30T12:25:42.732Z,42.50
2019-04-30T12:28:14.394Z,42.50
2019-04-30T12:30:48.792Z,42.90
2019-04-30T12:33:21.687Z,43.10
2019-04-30T12:35:54.180Z,43.20
2019-04-30T12:38:25.869Z,43.70
2019-04-30T12:40:58.680Z,43.50
2019-04-30T12:43:31.648Z,43.50
2019-04-30T12:46:05.571Z,43.70
2019-04-30T12:48:40.917Z,44.60
2019-04-30T12:51:14.903Z,45.50
2019-04-30T12:54:09.877Z,45.10
2019-04-30T12:56:47.751Z,44.60
2019-04-30T12:59:20.894Z,44.70
2019-04-30T13:01:55.207Z,46.00
2019-04-30T13:04:29.382Z,45.50
2019-04-30T13:07:02.635Z,45.90
2019-04-30T13:09:39.263Z,45.50
2019-04-30T13:12:12.353Z,46.10
2019-04-30T13:14:51.358Z,46.00
2019-04-30T13:17:20.402Z,45.90
2019-04-30T13:19:52.953Z,45.50
2019-04-30T13:22:26.142Z,45.40
2019-04-30T13:24:59.588Z,45.20
2019-04-30T13:27:37.440Z,45.50
2019-04-30T13:30:12.305Z,45.60
2019-04-30T13:32:49.465Z,45.50
2019-04-30T13:35:22.254Z,45.60
2019-04-30T13:37:58.133Z,45.70
2019-04-30T13:40:48.868Z,47.00
2019-04-30T13:43:22.598Z,47.10
2019-04-30T13:45:55.260Z,46.50
2019-04-30T13:48:27.992Z,46.30
2019-04-30T13:51:03.574Z,48.00
2019-04-30T13:53:39.482Z,47.70
2019-04-30T13:56:12.330Z,48.30
2019-04-30T13:58:44.879Z,48.80
2019-04-30T14:01:18.883Z,49.30
2019-04-30T14:03:54.108Z,49.30
2019-04-30T14:06:28.971Z,49.30
2019-04-30T14:09:02.809Z,49.10
2019-04-30T14:11:35.524Z,49.30
2019-04-30T14:14:08.192Z,49.40
2019-04-30T14:16:43.621Z,50.00
2019-04-30T14:19:13.764Z,49.90
2019-04-30T14:21:49.371Z,50.00
2019-04-30T14:24:24.029Z,50.30
2019-04-30T14:26:58.935Z,50.30
2019-04-30T14:29:32.795Z,50.10
2019-04-30T14:32:04.621Z,50.20
2019-04-30T14:34:39.501Z,50.20
2019-04-30T14:37:11.785Z,50.40
2019-04-30T14:39:44.416Z,50.40
2019-04-30T14:42:20.662Z,50.80
2019-04-30T14:44:56.985Z,50.60
2019-04-30T14:47:37.116Z,50.70
2019-04-30T14:50:11.609Z,51.00
2019-04-30T14:52:46.470Z,51.30
2019-04-30T14:55:30.674Z,51.50
2019-04-30T14:58:21.688Z,51.50
2019-04-30T15:01:12.423Z,50.80
2019-04-30T15:03:44.202Z,51.60
2019-04-30T15:06:16.856Z,51.60
2019-04-30T15:08:52.660Z,51.20
2019-04-30T15:11:28.880Z,50.80
2019-04-30T15:14:00.580Z,50.60
2019-04-30T15:16:34.710Z,51.60
2019-04-30T15:19:06.113Z,51.10
2019-04-30T15:21:38.756Z,50.90
2019-04-30T15:24:19.268Z,51.40
2019-04-30T15:26:57.912Z,51.60
2019-04-30T15:29:29.015Z,51.00
2019-04-30T15:32:01.687Z,51.60
2019-04-30T15:34:36.181Z,51.30
2019-04-30T15:37:19.094Z,51.40
2019-04-30T15:39:44.249Z,51.60
2019-04-30T15:42:16.082Z,51.50
2019-04-30T15:44:49.765Z,52.00
2019-04-30T15:47:26.406Z,51.90
2019-04-30T15:50:02.300Z,52.20
2019-04-30T15:52:35.186Z,53.10
2019-04-30T15:55:10.083Z,52.30
2019-04-30T15:58:02.448Z,52.50
2019-04-30T16:00:35.531Z,52.10
2019-04-30T16:03:11.966Z,52.50
2019-04-30T16:05:48.584Z,53.10
2019-04-30T16:08:29.055Z,53.30
2019-04-30T16:11:10.902Z,53.10
2019-04-30T16:14:02.668Z,52.80
2019-04-30T16:16:38.825Z,54.00
2019-04-30T16:19:11.433Z,53.00
2019-04-30T16:21:44.092Z,53.80
2019-04-30T16:24:18.560Z,53.50
2019-04-30T16:26:52.614Z,53.50
2019-04-30T16:29:25.457Z,53.20
2019-04-30T16:31:59.037Z,53.40
2019-04-30T16:34:33.390Z,53.50
2019-04-30T16:37:06.569Z,53.80
2019-04-30T16:39:39.779Z,53.30
2019-04-30T16:42:11.591Z,53.50
2019-04-30T16:44:44.510Z,53.80
2019-04-30T16:47:17.335Z,53.60
2019-04-30T16:49:50.193Z,53.90
2019-04-30T16:52:22.903Z,53.90
2019-04-30T16:54:55.836Z,53.70
2019-04-30T16:57:30.088Z,54.20
2019-04-30T17:00:02.169Z,54.20
2019-04-30T17:02:34.947Z,54.30
2019-04-30T17:05:11.926Z,53.70
2019-04-30T17:07:47.418Z,54.30
2019-04-30T17:10:22.228Z,54.60
2019-04-30T17:12:59.169Z,54.90
2019-04-30T17:15:33.313Z,55.10
2019-04-30T17:18:09.971Z,55.10
2019-04-30T17:20:42.258Z,55.00
2019-04-30T17:23:19.133Z,55.50
2019-04-30T17:25:49.784Z,55.70
2019-04-30T17:28:23.712Z,55.80
2019-04-30T17:30:55.309Z,55.50
2019-04-30T17:33:28.142Z,55.60
2019-04-30T17:36:01.341Z,55.80
2019-04-30T17:38:34.522Z,55.80
2019-04-30T17:41:06.973Z,55.90
2019-04-30T17:43:41.829Z,56.80
2019-04-30T17:46:14.483Z,56.80
2019-04-30T17:48:50.691Z,57.00
2019-04-30T17:51:23.298Z,56.80
2019-04-30T17:54:13.856Z,57.30
2019-04-30T17:56:47.102Z,57.40
2019-04-30T17:59:18.617Z,57.40
2019-04-30T18:01:59.481Z,57.10
2019-04-30T18:04:31.713Z,56.80
2019-04-30T18:07:04.272Z,57.50
2019-04-30T18:09:38.831Z,58.10
2019-04-30T18:12:11.190Z,58.10
2019-04-30T18:14:44.724Z,58.20
2019-04-30T18:17:17.369Z,58.00
2019-04-30T18:19:53.391Z,58.50
2019-04-30T18:22:43.096Z,58.30
2019-04-30T18:25:32.341Z,58.80
2019-04-30T18:28:05.376Z,58.80
2019-04-30T18:30:39.979Z,58.60
2019-04-30T18:33:11.561Z,58.00
2019-04-30T18:35:44.281Z,57.60
2019-04-30T18:38:17.815Z,58.40
2019-04-30T18:40:50.619Z,57.90
2019-04-30T18:43:26.006Z,58.20
2019-04-30T18:45:57.709Z,58.80
2019-04-30T18:48:30.043Z,58.10
2019-04-30T18:51:15.971Z,59.20
2019-04-30T18:53:37.049Z,59.30
2019-04-30T18:56:14.287Z,59.50
2019-04-30T18:58:43.075Z,60.20
2019-04-30T19:01:17.562Z,59.70
2019-04-30T19:03:50.369Z,60.10
2019-04-30T19:06:27.117Z,60.30
2019-04-30T19:09:19.581Z,60.20
2019-04-30T19:11:53.067Z,60.70
2019-04-30T19:14:29.396Z,60.80
2019-04-30T19:17:24.651Z,60.80
2019-04-30T19:20:06.032Z,61.00
2019-04-30T19:22:39.686Z,61.00
2019-04-30T19:25:12.442Z,61.20
2019-04-30T19:27:45.148Z,61.60
2019-04-30T19:30:16.827Z,61.90
2019-04-30T19:32:49.450Z,61.60
2019-04-30T19:35:21.111Z,62.00
2019-04-30T19:37:52.699Z,62.10
2019-04-30T19:40:25.408Z,62.40
2019-04-30T19:42:59.802Z,62.30
2019-04-30T19:45:32.434Z,62.40
2019-04-30T19:48:05.417Z,62.90
2019-04-30T19:50:37.042Z,62.50
2019-04-30T19:53:09.445Z,63.30
2019-04-30T19:55:42.387Z,62.70
2019-04-30T19:58:26.185Z,62.60
2019-04-30T20:00:49.940Z,62.60
2019-04-30T20:03:21.753Z,61.50
2019-04-30T20:05:54.522Z,61.50
2019-04-30T20:08:28.741Z,61.90
2019-04-30T20:11:00.831Z,61.50
2019-04-30T20:13:36.884Z,62.00
2019-04-30T20:16:09.606Z,61.30
2019-04-30T20:18:41.068Z,61.90
2019-04-30T20:21:27.898Z,62.40
2019-04-30T20:23:53.686Z,62.60
2019-04-30T20:26:25.321Z,62.50
2019-04-30T20:28:58.965Z,61.60
2019-04-30T20:31:30.833Z,61.60
2019-04-30T20:34:03.525Z,61.70
2019-04-30T20:36:36.351Z,61.60
2019-04-30T20:39:16.280Z,61.10
2019-04-30T20:41:48.858Z,60.50
2019-04-30T20:44:20.217Z,60.70
2019-04-30T20:46:52.848Z,61.30
2019-04-30T20:49:24.364Z,62.00
2019-04-30T20:51:56.179Z,61.50
2019-04-30T20:54:29.694Z,61.20
2019-04-30T20:57:02.273Z,61.00
2019-04-30T20:59:34.957Z,60.30
2019-04-30T21:02:07.485Z,59.90
2019-04-30T21:04:40.117Z,59.70
2019-04-30T21:07:12.884Z,60.60
2019-04-30T21:09:47.402Z,59.80
2019-04-30T21:12:20.215Z,59.70
2019-04-30T21:14:52.221Z,61.20
2019-04-30T21:17:25.265Z,61.90
2019-04-30T21:19:58.860Z,61.90
2019-04-30T21:22:31.766Z,61.20
2019-04-30T21:25:05.979Z,61.90
2019-04-30T21:27:40.139Z,61.70
2019-04-30T21:30:15.280Z,61.70
2019-04-30T21:33:04.325Z,61.60
2019-04-30T21:35:38.136Z,62.40
2019-04-30T21:38:10.998Z,62.90
2019-04-30T21:40:43.314Z,63.20
2019-04-30T21:43:14.904Z,63.00
2019-04-30T21:45:49.266Z,63.40
2019-04-30T21:48:21.866Z,63.60
2019-04-30T21:50:56.193Z,63.60
2019-04-30T21:53:29.466Z,63.00
2019-04-30T21:56:02.024Z,62.80
2019-04-30T21:58:33.726Z,63.80
2019-04-30T22:01:10.651Z,63.00
2019-04-30T22:03:43.350Z,64.10
2019-04-30T22:06:14.929Z,64.60
2019-04-30T22:08:49.218Z,64.40
2019-04-30T22:11:21.065Z,63.90
2019-04-30T22:13:53.437Z,64.40
2019-04-30T22:16:25.909Z,64.00
2019-04-30T22:18:57.891Z,64.60
2019-04-30T22:21:30.368Z,65.00
2019-04-30T22:24:02.777Z,65.20
2019-04-30T22:26:34.615Z,65.50
2019-04-30T22:29:05.984Z,65.80
2019-04-30T22:31:39.622Z,65.80
2019-04-30T22:34:11.194Z,66.30
2019-04-30T22:36:45.194Z,66.00
2019-04-30T22:39:35.617Z,66.40
2019-04-30T22:42:34.216Z,66.40
2019-04-30T22:45:07.759Z,66.90
2019-04-30T22:47:40.211Z,66.60
2019-04-30T22:50:13.004Z,67.00
2019-04-30T22:52:44.825Z,66.60
2019-04-30T22:55:16.281Z,66.40
2019-04-30T22:57:47.963Z,66.90
2019-04-30T23:00:21.462Z,66.90
2019-04-30T23:03:12.160Z,66.40
2019-04-30T23:05:46.305Z,66.00
2019-04-30T23:08:17.870Z,66.80
2019-04-30T23:10:50.484Z,66.50
2019-04-30T23:13:23.183Z,66.30
2019-04-30T23:15:56.356Z,66.20
2019-04-30T23:18:31.971Z,66.50
2019-04-30T23:21:04.626Z,65.20
2019-04-30T23:23:37.355Z,66.50
2019-04-30T23:26:11.857Z,66.00
2019-04-30T23:28:46.355Z,67.00
2019-04-30T23:31:18.869Z,66.50
2019-04-30T23:33:50.472Z,67.00
2019-04-30T23:36:21.988Z,66.90
2019-04-30T23:38:56.534Z,66.60
2019-04-30T23:41:29.861Z,66.80
2019-04-30T23:44:02.357Z,67.10
2019-04-30T23:46:36.906Z,67.60
2019-04-30T23:49:08.687Z,67.50
2019-04-30T23:51:41.480Z,67.20
2019-04-30T23:54:16.312Z,66.90
2019-04-30T23:56:51.543Z,67.50
2019-04-30T23:59:23.278Z,67.90
